Time,TemperatureF,DewpointF,PressureIn,WindDirection,WindDirectionDegrees,WindSpeedMPH,WindSpeedGustMPH,Humidity,HourlyPrecipIn,Conditions,Clouds,dailyrainin,SoftwareType,DateUTC
2013-10-07 00:01:00,41.4,38.7,29.93,SSW,202,0.0,0.0,90,0.00,CLR,,0.00,WeatherDisplay:10.37,2013-10-07 06:01:00,
2013-10-07 00:06:00,41.4,38.7,29.93,SW,225,2.9,3.5,90,0.00,CLR,,0.00,WeatherDisplay:10.37,2013-10-07 06:06:00,
2013-10-07 00:11:00,41.5,38.2,29.93,NNW,338,0.0,0.0,88,0.00,CLR,,0.00,WeatherDisplay:10.37,2013-10-07 06:11:00,
2013-10-07 00:16:00,41.5,38.2,29.92,SSW,202,2.8,3.5,88,0.00,CLR,,0.00,WeatherDisplay:10.37,2013-10-07 06:16:00,
2013-10-07 00:21:00,41.4,38.1,29.92,SW,225,0.0,0.0,88,0.00,CLR,,0.00,WeatherDisplay:10.37,2013-10-07 06:21:00,
2013-10-07 00:26:00,41.0,38.0,29.92,ENE,68,0.0,0.0,89,0.00,CLR,,0.00,WeatherDisplay:10.37,2013-10-07 06:26:00,
2013-10-07 00:31:00,40.8,37.8,29.92,West,270,0.0,0.0,89,0.00,CLR,,0.00,WeatherDisplay:10.37,2013-10-07 06:31:00,
2013-10-07 00:36:00,40.6,37.6,29.92,West,270,0.0,0.0,89,0.00,CLR,,0.00,WeatherDisplay:10.37,2013-10-07 06:36:00,
2013-10-07 00:41:00,40.6,37.9,29.92,SW,225,0.0,0.0,90,0.00,CLR,,0.00,WeatherDisplay:10.37,2013-10-07 06:41:00,
2013-10-07 00:46:00,40.5,37.8,29.92,SW,225,0.0,0.0,90,0.00,CLR,,0.00,WeatherDisplay:10.37,2013-10-07 06:46:00,
2013-10-07 00:51:00,40.3,37.6,29.93,SW,225,0.0,0.0,90,0.00,CLR,,0.00,WeatherDisplay:10.37,2013-10-07 06:51:00,
2013-10-07 00:56:00,40.1,37.4,29.93,NE,45,0.0,0.0,90,0.00,CLR,,0.00,WeatherDisplay:10.37,2013-10-07 06:56:00,
2013-10-07 01:02:00,39.7,37.0,29.93,NE,45,0.0,0.0,90,0.00,CLR,,0.00,WeatherDisplay:10.37,2013-10-07 07:02:00,
2013-10-07 01:07:00,39.6,36.9,29.92,WNW,292,0.0,0.0,90,0.00,CLR,,0.00,WeatherDisplay:10.37,2013-10-07 07:07:00,
2013-10-07 01:12:00,39.6,36.9,29.92,WNW,292,0.0,0.0,90,0.00,CLR,,0.00,WeatherDisplay:10.37,2013-10-07 07:12:00,
2013-10-07 01:17:00,39.6,37.2,29.92,SE,135,0.0,0.0,91,0.00,CLR,,0.00,WeatherDisplay:10.37,2013-10-07 07:17:00,
2013-10-07 01:22:00,39.6,37.2,29.92,SE,135,0.0,0.0,91,0.00,CLR,,0.00,WeatherDisplay:10.37,2013-10-07 07:22:00,
2013-10-07 01:27:00,39.2,36.8,29.92,ESE,112,0.0,0.0,91,0.00,CLR,,0.00,WeatherDisplay:10.37,2013-10-07 07:27:00,
2013-10-07 01:32:00,39.0,36.9,29.92,NW,315,0.0,0.0,92,0.00,CLR,,0.00,WeatherDisplay:10.37,2013-10-07 07:32:00,
2013-10-07 01:37:00,39.0,36.9,29.92,West,270,0.0,0.0,92,0.00,CLR,,0.00,WeatherDisplay:10.37,2013-10-07 07:37:00,
2013-10-07 01:42:00,39.0,36.9,29.92,West,270,0.0,0.0,92,0.00,CLR,,0.00,WeatherDisplay:10.37,2013-10-07 07:42:00,
2013-10-07 01:47:00,39.0,36.9,29.92,SW,225,0.4,1.7,92,0.00,CLR,,0.00,WeatherDisplay:10.37,2013-10-07 07:47:00,
2013-10-07 01:52:00,39.0,36.9,29.92,WSW,248,0.0,0.0,92,0.00,CLR,,0.00,WeatherDisplay:10.37,2013-10-07 07:52:00,
2013-10-07 01:57:00,38.8,36.7,29.92,ESE,112,0.0,0.0,92,0.00,CLR,,0.00,WeatherDisplay:10.37,2013-10-07 07:57:00,
2013-10-07 02:02:00,38.7,36.6,29.92,ESE,112,0.0,0.0,92,0.00,CLR,,0.00,WeatherDisplay:10.37,2013-10-07 08:02:00,
2013-10-07 02:07:00,38.5,36.4,29.92,South,180,0.0,0.0,92,0.00,CLR,,0.00,WeatherDisplay:10.37,2013-10-07 08:07:00,
2013-10-07 02:12:00,38.3,36.2,29.92,NW,315,0.0,0.0,92,0.00,CLR,,0.00,WeatherDisplay:10.37,2013-10-07 08:12:00,
2013-10-07 02:17:00,38.3,36.5,29.92,West,270,0.0,0.0,93,0.00,CLR,,0.00,WeatherDisplay:10.37,2013-10-07 08:17:00,
2013-10-07 02:22:00,37.9,36.1,29.92,West,270,0.0,0.0,93,0.00,CLR,,0.00,WeatherDisplay:10.37,2013-10-07 08:22:00,
2013-10-07 02:27:00,37.9,35.8,29.91,West,270,0.0,0.0,92,0.00,CLR,,0.00,WeatherDisplay:10.37,2013-10-07 08:27:00,
2013-10-07 02:32:00,37.6,35.5,29.91,East,90,0.0,0.0,92,0.00,CLR,,0.00,WeatherDisplay:10.37,2013-10-07 08:32:00,
2013-10-07 02:37:00,37.6,35.5,29.91,SW,225,0.0,0.0,92,0.00,CLR,,0.00,WeatherDisplay:10.37,2013-10-07 08:37:00,
2013-10-07 02:42:00,37.8,36.0,29.91,SSE,158,0.0,0.0,93,0.00,CLR,,0.00,WeatherDisplay:10.37,2013-10-07 08:42:00,
2013-10-07 02:47:00,38.1,36.5,29.91,South,180,0.0,0.0,94,0.00,CLR,,0.00,WeatherDisplay:10.37,2013-10-07 08:47:00,
2013-10-07 02:52:00,37.6,36.0,29.91,ENE,68,0.0,0.0,94,0.00,CLR,,0.00,WeatherDisplay:10.37,2013-10-07 08:52:00,
2013-10-07 02:57:00,37.4,35.8,29.91,SSW,202,0.0,0.0,94,0.00,CLR,,0.00,WeatherDisplay:10.37,2013-10-07 08:57:00,
2013-10-07 03:02:00,37.8,36.0,29.91,SW,225,2.2,2.3,93,0.00,CLR,,0.00,WeatherDisplay:10.37,2013-10-07 09:02:00,
2013-10-07 03:07:00,37.8,35.7,29.90,SW,225,1.7,2.3,92,0.00,CLR,,0.00,WeatherDisplay:10.37,2013-10-07 09:07:00,
2013-10-07 03:12:00,37.6,35.2,29.90,SSE,158,0.0,0.0,91,0.00,CLR,,0.00,WeatherDisplay:10.37,2013-10-07 09:12:00,
2013-10-07 03:17:00,37.6,35.2,29.90,SSW,202,0.0,0.0,91,0.00,CLR,,0.00,WeatherDisplay:10.37,2013-10-07 09:17:00,
2013-10-07 03:22:00,37.4,35.3,29.90,NNE,22,0.0,0.0,92,0.00,CLR,,0.00,WeatherDisplay:10.37,2013-10-07 09:22:00,
2013-10-07 03:27:00,37.2,35.1,29.90,WSW,248,0.0,0.0,92,0.00,CLR,,0.00,WeatherDisplay:10.37,2013-10-07 09:27:00,
2013-10-07 03:32:00,37.2,35.1,29.90,WSW,248,0.0,0.0,92,0.00,CLR,,0.00,WeatherDisplay:10.37,2013-10-07 09:32:00,
2013-10-07 03:37:00,37.0,34.9,29.90,SSW,202,1.4,1.4,92,0.00,CLR,,0.00,WeatherDisplay:10.37,2013-10-07 09:37:00,
2013-10-07 03:42:00,36.9,34.8,29.90,WSW,248,0.0,0.0,92,0.00,CLR,,0.00,WeatherDisplay:10.37,2013-10-07 09:42:00,
2013-10-07 03:47:00,36.9,34.8,29.90,WSW,248,0.0,0.0,92,0.00,CLR,,0.00,WeatherDisplay:10.37,2013-10-07 09:47:00,
2013-10-07 03:52:00,36.9,34.8,29.90,SW,225,0.0,0.0,92,0.00,CLR,,0.00,WeatherDisplay:10.37,2013-10-07 09:52:00,
2013-10-07 03:57:00,36.9,34.8,29.90,SW,225,1.6,2.3,92,0.00,CLR,,0.00,WeatherDisplay:10.37,2013-10-07 09:57:00,
2013-10-07 04:02:00,36.7,34.6,29.90,WNW,292,0.0,1.1,92,0.00,CLR,,0.00,WeatherDisplay:10.37,2013-10-07 10:02:00,
2013-10-07 04:07:00,36.7,34.6,29.90,ESE,112,0.0,0.0,92,0.00,CLR,,0.00,WeatherDisplay:10.37,2013-10-07 10:07:00,
2013-10-07 04:12:00,36.3,34.2,29.90,NE,45,0.0,0.0,92,0.00,CLR,,0.00,WeatherDisplay:10.37,2013-10-07 10:12:00,
2013-10-07 04:17:00,36.0,33.9,29.90,NE,45,0.0,0.0,92,0.00,CLR,,0.00,WeatherDisplay:10.37,2013-10-07 10:17:00,
2013-10-07 04:22:00,36.0,33.9,29.90,NE,45,0.0,0.0,92,0.00,CLR,,0.00,WeatherDisplay:10.37,2013-10-07 10:22:00,
2013-10-07 04:27:00,36.0,34.2,29.89,SSW,202,0.0,0.0,93,0.00,CLR,,0.00,WeatherDisplay:10.37,2013-10-07 10:27:00,
2013-10-07 04:32:00,36.0,34.2,29.89,SE,135,0.0,0.0,93,0.00,CLR,,0.00,WeatherDisplay:10.37,2013-10-07 10:32:00,
2013-10-07 04:37:00,35.6,33.8,29.89,NE,45,0.0,0.0,93,0.00,CLR,,0.00,WeatherDisplay:10.37,2013-10-07 10:37:00,
2013-10-07 04:42:00,35.4,33.6,29.89,NE,45,0.0,0.0,93,0.00,CLR,,0.00,WeatherDisplay:10.37,2013-10-07 10:42:00,
2013-10-07 04:47:00,35.4,33.6,29.89,NW,315,0.0,0.0,93,0.00,CLR,,0.00,WeatherDisplay:10.37,2013-10-07 10:47:00,
2013-10-07 04:52:00,35.6,33.8,29.89,SW,225,0.0,0.0,93,0.00,CLR,,0.00,WeatherDisplay:10.37,2013-10-07 10:52:00,
2013-10-07 04:57:00,35.8,34.2,29.89,WSW,248,0.1,1.1,94,0.00,CLR,,0.00,WeatherDisplay:10.37,2013-10-07 10:57:00,
2013-10-07 05:02:00,35.8,34.2,29.89,WSW,248,0.0,0.0,94,0.00,CLR,,0.00,WeatherDisplay:10.37,2013-10-07 11:02:00,
2013-10-07 05:07:00,35.8,34.2,29.89,NE,45,0.0,0.0,94,0.00,CLR,,0.00,WeatherDisplay:10.37,2013-10-07 11:07:00,
2013-10-07 05:12:00,35.2,33.6,29.89,East,90,0.0,0.0,94,0.00,CLR,,0.00,WeatherDisplay:10.37,2013-10-07 11:12:00,
2013-10-07 05:17:00,35.2,33.6,29.89,ESE,112,0.0,0.0,94,0.00,CLR,,0.00,WeatherDisplay:10.37,2013-10-07 11:17:00,
2013-10-07 05:23:00,35.2,33.6,29.89,East,90,0.0,0.0,94,0.00,CLR,,0.00,WeatherDisplay:10.37,2013-10-07 11:23:00,
2013-10-07 05:28:00,35.4,34.1,29.88,SW,225,1.0,2.2,95,0.00,CLR,,0.00,WeatherDisplay:10.37,2013-10-07 11:28:00,
2013-10-07 05:33:00,35.4,34.1,29.88,WSW,248,0.0,1.1,95,0.00,CLR,,0.00,WeatherDisplay:10.37,2013-10-07 11:33:00,
2013-10-07 05:38:00,35.2,33.9,29.88,WNW,292,0.0,0.0,95,0.00,CLR,,0.00,WeatherDisplay:10.37,2013-10-07 11:38:00,
2013-10-07 05:43:00,35.1,33.8,29.89,North,360,0.0,1.1,95,0.00,CLR,,0.00,WeatherDisplay:10.37,2013-10-07 11:43:00,
2013-10-07 05:48:00,34.9,33.6,29.89,ESE,112,0.0,0.0,95,0.00,CLR,,0.00,WeatherDisplay:10.37,2013-10-07 11:48:00,
2013-10-07 05:53:00,35.1,33.8,29.89,ESE,112,0.0,0.0,95,0.00,CLR,,0.00,WeatherDisplay:10.37,2013-10-07 11:53:00,
2013-10-07 05:58:00,34.9,33.6,29.89,SE,135,0.0,0.0,95,0.00,CLR,,0.00,WeatherDisplay:10.37,2013-10-07 11:58:00,
2013-10-07 06:03:00,34.9,33.6,29.88,North,360,0.0,0.0,95,0.00,CLR,,0.00,WeatherDisplay:10.37,2013-10-07 12:03:00,
2013-10-07 06:08:00,34.7,33.4,29.88,North,360,0.0,0.0,95,0.00,CLR,,0.00,WeatherDisplay:10.37,2013-10-07 12:08:00,
2013-10-07 06:13:00,34.5,33.2,29.88,ESE,112,0.0,0.0,95,0.00,CLR,,0.00,WeatherDisplay:10.37,2013-10-07 12:13:00,
2013-10-07 06:18:00,34.3,33.0,29.88,ESE,112,0.0,0.0,95,0.00,CLR,,0.00,WeatherDisplay:10.37,2013-10-07 12:18:00,
2013-10-07 06:23:00,34.5,33.2,29.88,NE,45,0.0,0.0,95,0.00,CLR,,0.00,WeatherDisplay:10.37,2013-10-07 12:23:00,
2013-10-07 06:28:00,34.7,33.7,29.88,NNE,22,0.0,0.0,96,0.00,CLR,,0.00,WeatherDisplay:10.37,2013-10-07 12:28:00,
2013-10-07 06:33:00,34.7,33.7,29.88,ESE,112,1.6,1.6,96,0.00,CLR,,0.00,WeatherDisplay:10.37,2013-10-07 12:33:00,
2013-10-07 06:38:00,34.7,33.7,29.88,ENE,68,0.0,0.0,96,0.00,CLR,,0.00,WeatherDisplay:10.37,2013-10-07 12:38:00,
2013-10-07 06:43:00,34.7,33.7,29.88,ENE,68,0.0,0.0,96,0.00,CLR,,0.00,WeatherDisplay:10.37,2013-10-07 12:43:00,
2013-10-07 06:48:00,34.7,33.7,29.88,NE,45,0.0,0.0,96,0.00,CLR,,0.00,WeatherDisplay:10.37,2013-10-07 12:48:00,
2013-10-07 06:53:00,34.7,33.7,29.88,East,90,1.7,2.3,96,0.00,CLR,,0.00,WeatherDisplay:10.37,2013-10-07 12:53:00,
2013-10-07 06:58:00,35.1,34.3,29.88,ESE,112,1.2,1.2,97,0.00,CLR,,0.00,WeatherDisplay:10.37,2013-10-07 12:58:00,
2013-10-07 07:03:00,35.1,34.3,29.88,ESE,112,0.0,0.0,97,0.00,CLR,,0.00,WeatherDisplay:10.37,2013-10-07 13:03:00,
2013-10-07 07:08:00,34.7,33.9,29.88,NE,45,0.0,0.0,97,0.00,CLR,,0.00,WeatherDisplay:10.37,2013-10-07 13:08:00,
2013-10-07 07:13:00,34.7,33.9,29.88,NE,45,0.3,0.0,97,0.00,CLR,,0.00,WeatherDisplay:10.37,2013-10-07 13:13:00,
2013-10-07 07:18:00,34.7,33.9,29.88,ENE,68,0.0,0.0,97,0.00,CLR,,0.00,WeatherDisplay:10.37,2013-10-07 13:18:00,
2013-10-07 07:23:00,34.9,34.1,29.88,ENE,68,0.4,1.7,97,0.00,CLR,,0.00,WeatherDisplay:10.37,2013-10-07 13:23:00,
2013-10-07 07:28:00,34.9,34.1,29.88,East,90,0.0,0.0,97,0.00,CLR,,0.00,WeatherDisplay:10.37,2013-10-07 13:28:00,
2013-10-07 07:33:00,35.1,34.3,29.88,NNE,22,0.5,1.1,97,0.00,CLR,,0.00,WeatherDisplay:10.37,2013-10-07 13:33:00,
2013-10-07 07:38:00,35.2,34.4,29.88,East,90,0.0,0.0,97,0.00,CLR,,0.00,WeatherDisplay:10.37,2013-10-07 13:38:00,
2013-10-07 07:43:00,35.2,34.4,29.87,ENE,68,0.0,0.0,97,0.00,CLR,,0.00,WeatherDisplay:10.37,2013-10-07 13:43:00,
2013-10-07 07:48:00,35.4,34.6,29.87,ENE,68,0.0,0.0,97,0.00,CLR,,0.00,WeatherDisplay:10.37,2013-10-07 13:48:00,
2013-10-07 07:53:00,36.0,35.0,29.87,SW,225,0.8,1.1,96,0.00,CLR,,0.00,WeatherDisplay:10.37,2013-10-07 13:53:00,
2013-10-07 07:58:00,36.3,35.0,29.87,ENE,68,0.0,0.0,95,0.00,CLR,,0.00,WeatherDisplay:10.37,2013-10-07 13:58:00,
2013-10-07 08:03:00,36.5,35.2,29.87,NNW,338,0.0,0.0,95,0.00,CLR,,0.00,WeatherDisplay:10.37,2013-10-07 14:03:00,
2013-10-07 08:08:00,36.7,35.4,29.87,NNW,338,0.0,0.0,95,0.00,CLR,,0.00,WeatherDisplay:10.37,2013-10-07 14:08:00,
2013-10-07 08:13:00,37.8,36.0,29.87,SSE,158,0.0,0.0,93,0.00,CLR,,0.00,WeatherDisplay:10.37,2013-10-07 14:13:00,
2013-10-07 08:18:00,38.7,36.0,29.86,SSE,158,0.0,0.0,90,0.00,CLR,,0.00,WeatherDisplay:10.37,2013-10-07 14:18:00,
2013-10-07 08:23:00,38.8,36.4,29.86,North,360,0.0,0.0,91,0.00,CLR,,0.00,WeatherDisplay:10.37,2013-10-07 14:23:00,
2013-10-07 08:28:00,39.0,36.6,29.87,ENE,68,0.0,0.0,91,0.00,CLR,,0.00,WeatherDisplay:10.37,2013-10-07 14:28:00,
2013-10-07 08:33:00,40.5,37.8,29.87,ESE,112,0.0,0.0,90,0.00,CLR,,0.00,WeatherDisplay:10.37,2013-10-07 14:33:00,
2013-10-07 08:38:00,41.9,38.0,29.87,ESE,112,1.7,1.7,86,0.00,CLR,,0.00,WeatherDisplay:10.37,2013-10-07 14:38:00,
2013-10-07 08:43:00,42.6,38.4,29.86,ESE,112,0.0,0.0,85,0.00,CLR,,0.00,WeatherDisplay:10.37,2013-10-07 14:43:00,
2013-10-07 08:48:00,44.1,39.3,29.86,East,90,2.0,2.3,83,0.00,CLR,,0.00,WeatherDisplay:10.37,2013-10-07 14:48:00,
2013-10-07 08:53:00,44.6,39.8,29.86,SE,135,1.6,2.3,83,0.00,CLR,,0.00,WeatherDisplay:10.37,2013-10-07 14:53:00,
2013-10-07 08:58:00,44.6,40.4,29.86,East,90,1.5,1.7,85,0.00,CLR,,0.00,WeatherDisplay:10.37,2013-10-07 14:58:00,
2013-10-07 09:03:00,45.0,41.1,29.86,East,90,0.0,1.1,86,0.00,CLR,,0.00,WeatherDisplay:10.37,2013-10-07 15:03:00,
2013-10-07 09:08:00,46.9,42.0,29.86,ESE,112,1.8,2.3,83,0.00,CLR,,0.00,WeatherDisplay:10.37,2013-10-07 15:08:00,
2013-10-07 09:13:00,48.2,42.6,29.86,ESE,112,1.8,2.3,81,0.00,CLR,,0.00,WeatherDisplay:10.37,2013-10-07 15:13:00,
2013-10-07 09:18:00,49.6,43.7,29.86,ESE,112,1.4,1.7,80,0.00,CLR,,0.00,WeatherDisplay:10.37,2013-10-07 15:18:00,
2013-10-07 09:23:00,50.7,43.8,29.86,ESE,112,2.1,2.3,77,0.00,CLR,,0.00,WeatherDisplay:10.37,2013-10-07 15:23:00,
2013-10-07 09:28:00,52.0,44.7,29.86,East,90,1.1,1.1,76,0.00,CLR,,0.00,WeatherDisplay:10.37,2013-10-07 15:28:00,
2013-10-07 09:33:00,52.7,45.3,29.86,NE,45,1.6,2.2,76,0.00,CLR,,0.00,WeatherDisplay:10.37,2013-10-07 15:33:00,
2013-10-07 09:38:00,52.7,45.3,29.85,NNE,22,2.0,2.3,76,0.00,CLR,,0.00,WeatherDisplay:10.37,2013-10-07 15:38:00,
2013-10-07 09:43:00,53.1,45.4,29.85,NNE,22,0.9,2.3,75,0.00,CLR,,0.00,WeatherDisplay:10.37,2013-10-07 15:43:00,
2013-10-07 09:48:00,53.6,45.9,29.85,NE,45,2.0,2.3,75,0.00,CLR,,0.00,WeatherDisplay:10.37,2013-10-07 15:48:00,
2013-10-07 09:53:00,54.1,46.0,29.85,West,270,0.5,2.3,74,0.00,CLR,,0.00,WeatherDisplay:10.37,2013-10-07 15:53:00,
2013-10-07 09:58:00,54.1,46.0,29.85,NNW,338,0.0,0.0,74,0.00,CLR,,0.00,WeatherDisplay:10.37,2013-10-07 15:58:00,
2013-10-07 10:03:00,55.2,46.7,29.84,NW,315,1.5,2.3,73,0.00,CLR,,0.00,WeatherDisplay:10.37,2013-10-07 16:03:00,
2013-10-07 10:08:00,55.8,46.2,29.84,NW,315,0.0,1.1,70,0.00,CLR,,0.00,WeatherDisplay:10.37,2013-10-07 16:08:00,
2013-10-07 10:13:00,57.2,45.5,29.84,SE,135,2.0,2.3,65,0.00,CLR,,0.00,WeatherDisplay:10.37,2013-10-07 16:13:00,
2013-10-07 10:18:00,58.6,46.5,29.84,NE,45,1.3,2.3,64,0.00,CLR,,0.00,WeatherDisplay:10.37,2013-10-07 16:18:00,
2013-10-07 10:23:00,59.7,44.4,29.84,SW,225,4.2,4.6,57,0.00,CLR,,0.00,WeatherDisplay:10.37,2013-10-07 16:23:00,
2013-10-07 10:28:00,60.8,42.5,29.84,SW,225,5.0,5.0,51,0.00,CLR,,0.00,WeatherDisplay:10.37,2013-10-07 16:28:00,
2013-10-07 10:33:00,61.7,43.9,29.84,SW,225,3.3,3.5,52,0.00,CLR,,0.00,WeatherDisplay:10.37,2013-10-07 16:33:00,
2013-10-07 10:38:00,63.0,44.1,29.83,SW,225,3.6,4.6,50,0.00,CLR,,0.00,WeatherDisplay:10.37,2013-10-07 16:38:00,
2013-10-07 10:43:00,63.1,43.6,29.83,WSW,248,4.9,5.8,49,0.00,CLR,,0.00,WeatherDisplay:10.37,2013-10-07 16:43:00,
2013-10-07 10:48:00,63.9,43.3,29.83,SW,225,4.1,4.6,47,0.00,CLR,,0.00,WeatherDisplay:10.37,2013-10-07 16:48:00,
2013-10-07 10:54:00,63.9,43.8,29.82,SSE,158,3.9,4.6,48,0.00,CLR,,0.00,WeatherDisplay:10.37,2013-10-07 16:54:00,
2013-10-07 10:59:00,64.6,43.3,29.82,South,180,4.9,5.8,46,0.00,CLR,,0.00,WeatherDisplay:10.37,2013-10-07 16:59:00,
2013-10-07 11:04:00,64.9,44.2,29.82,South,180,4.1,4.7,47,0.00,CLR,,0.00,WeatherDisplay:10.37,2013-10-07 17:04:00,
2013-10-07 11:09:00,65.8,42.7,29.82,SW,225,4.0,5.8,43,0.00,CLR,,0.00,WeatherDisplay:10.37,2013-10-07 17:09:00,
2013-10-07 11:14:00,66.0,42.9,29.82,SSE,158,4.1,5.8,43,0.00,CLR,,0.00,WeatherDisplay:10.37,2013-10-07 17:14:00,
2013-10-07 11:19:00,66.9,43.7,29.81,South,180,3.7,4.6,43,0.00,CLR,,0.00,WeatherDisplay:10.37,2013-10-07 17:19:00,
2013-10-07 11:24:00,66.7,42.9,29.81,South,180,4.0,5.8,42,0.00,CLR,,0.00,WeatherDisplay:10.37,2013-10-07 17:24:00,
2013-10-07 11:29:00,67.5,44.2,29.81,ESE,112,3.6,5.8,43,0.00,CLR,,0.00,WeatherDisplay:10.37,2013-10-07 17:29:00,
2013-10-07 11:34:00,67.6,42.4,29.81,SSE,158,6.9,8.1,40,0.00,CLR,,0.00,WeatherDisplay:10.37,2013-10-07 17:34:00,
2013-10-07 11:39:00,68.2,42.9,29.81,SSW,202,7.6,8.3,40,0.00,CLR,,0.00,WeatherDisplay:10.37,2013-10-07 17:39:00,
2013-10-07 11:44:00,68.7,43.4,29.81,ESE,112,5.2,5.8,40,0.00,CLR,,0.00,WeatherDisplay:10.37,2013-10-07 17:44:00,
2013-10-07 11:49:00,68.9,43.6,29.81,SSE,158,6.9,8.1,40,0.00,CLR,,0.00,WeatherDisplay:10.37,2013-10-07 17:49:00,
2013-10-07 11:54:00,69.4,42.7,29.80,SSE,158,9.0,10.4,38,0.00,CLR,,0.00,WeatherDisplay:10.37,2013-10-07 17:54:00,
2013-10-07 11:59:00,69.6,43.5,29.80,South,180,8.8,10.4,39,0.00,CLR,,0.00,WeatherDisplay:10.37,2013-10-07 17:59:00,
2013-10-07 12:04:00,70.0,43.9,29.79,SSW,202,7.8,9.2,39,0.00,CLR,,0.00,WeatherDisplay:10.37,2013-10-07 18:04:00,
2013-10-07 12:10:00,70.2,43.4,29.79,South,180,8.7,10.4,38,0.00,CLR,,0.00,WeatherDisplay:10.37,2013-10-07 18:10:00,
2013-10-07 12:14:00,70.2,44.1,29.79,South,180,9.0,10.9,39,0.00,CLR,,0.00,WeatherDisplay:10.37,2013-10-07 18:14:00,
2013-10-07 12:20:00,70.7,43.8,29.79,ESE,112,9.7,11.5,38,0.00,CLR,,0.00,WeatherDisplay:10.37,2013-10-07 18:20:00,
2013-10-07 12:25:00,71.4,45.1,29.79,SE,135,5.9,8.1,39,0.00,CLR,,0.00,WeatherDisplay:10.37,2013-10-07 18:25:00,
2013-10-07 12:30:00,71.2,45.0,29.79,SSE,158,8.0,11.5,39,0.00,CLR,,0.00,WeatherDisplay:10.37,2013-10-07 18:30:00,
2013-10-07 12:35:00,72.1,42.9,29.79,ESE,112,7.1,13.8,35,0.00,CLR,,0.00,WeatherDisplay:10.37,2013-10-07 18:35:00,
2013-10-07 12:40:00,72.3,42.3,29.78,South,180,9.2,10.4,34,0.00,CLR,,0.00,WeatherDisplay:10.37,2013-10-07 18:40:00,
2013-10-07 12:45:00,72.9,42.9,29.78,SE,135,8.0,9.2,34,0.00,CLR,,0.00,WeatherDisplay:10.37,2013-10-07 18:45:00,
2013-10-07 12:50:00,73.4,42.5,29.78,SSE,158,5.5,10.4,33,0.00,CLR,,0.00,WeatherDisplay:10.37,2013-10-07 18:50:00,
2013-10-07 12:55:00,74.1,43.1,29.77,SW,225,5.4,5.8,33,0.00,CLR,,0.00,WeatherDisplay:10.37,2013-10-07 18:55:00,
2013-10-07 13:00:00,73.9,40.5,29.77,SE,135,9.1,13.8,30,0.00,CLR,,0.00,WeatherDisplay:10.37,2013-10-07 19:00:00,
2013-10-07 13:05:00,74.1,40.7,29.76,South,180,5.5,9.2,30,0.00,CLR,,0.00,WeatherDisplay:10.37,2013-10-07 19:05:00,
2013-10-07 13:10:00,72.9,40.5,29.76,South,180,9.9,11.5,31,0.00,CLR,,0.00,WeatherDisplay:10.37,2013-10-07 19:10:00,
2013-10-07 13:15:00,73.0,40.6,29.76,SSE,158,6.3,13.0,31,0.00,CLR,,0.00,WeatherDisplay:10.37,2013-10-07 19:15:00,
2013-10-07 13:20:00,73.9,40.5,29.75,SSW,202,8.0,10.4,30,0.00,CLR,,0.00,WeatherDisplay:10.37,2013-10-07 19:20:00,
2013-10-07 13:25:00,74.1,41.5,29.75,SE,135,8.7,10.4,31,0.00,CLR,,0.00,WeatherDisplay:10.37,2013-10-07 19:25:00,
2013-10-07 13:30:00,73.2,41.6,29.75,South,180,9.2,15.0,32,0.00,CLR,,0.00,WeatherDisplay:10.37,2013-10-07 19:30:00,
2013-10-07 13:35:00,73.4,40.9,29.75,SE,135,9.8,11.5,31,0.00,CLR,,0.00,WeatherDisplay:10.37,2013-10-07 19:35:00,
2013-10-07 13:40:00,73.4,40.9,29.75,SSE,158,12.1,13.8,31,0.00,CLR,,0.00,WeatherDisplay:10.37,2013-10-07 19:40:00,
2013-10-07 13:45:00,73.4,40.9,29.75,SSE,158,8.8,12.7,31,0.00,CLR,,0.00,WeatherDisplay:10.37,2013-10-07 19:45:00,
2013-10-07 13:50:00,73.8,41.3,29.75,South,180,9.0,10.4,31,0.00,CLR,,0.00,WeatherDisplay:10.37,2013-10-07 19:50:00,
2013-10-07 13:55:00,73.8,42.1,29.74,SSE,158,11.1,13.8,32,0.00,CLR,,0.00,WeatherDisplay:10.37,2013-10-07 19:55:00,
2013-10-07 14:00:00,73.8,41.3,29.74,SSE,158,11.8,13.0,31,0.00,CLR,,0.00,WeatherDisplay:10.37,2013-10-07 20:00:00,
2013-10-07 14:05:00,73.9,42.2,29.74,SSW,202,10.4,13.8,32,0.00,CLR,,0.00,WeatherDisplay:10.37,2013-10-07 20:05:00,
2013-10-07 14:10:00,73.9,42.2,29.74,SSE,158,9.0,11.5,32,0.00,CLR,,0.00,WeatherDisplay:10.37,2013-10-07 20:10:00,
2013-10-07 14:15:00,73.9,42.2,29.74,SSW,202,6.9,10.4,32,0.00,CLR,,0.00,WeatherDisplay:10.37,2013-10-07 20:15:00,
2013-10-07 14:20:00,73.9,41.3,29.74,South,180,7.3,11.5,31,0.00,CLR,,0.00,WeatherDisplay:10.37,2013-10-07 20:20:00,
2013-10-07 14:25:00,74.3,41.7,29.74,SSW,202,5.6,10.4,31,0.00,CLR,,0.00,WeatherDisplay:10.37,2013-10-07 20:25:00,
2013-10-07 14:30:00,73.8,40.4,29.74,WSW,248,7.5,8.1,30,0.00,CLR,,0.00,WeatherDisplay:10.37,2013-10-07 20:30:00,
2013-10-07 14:35:00,73.9,39.6,29.74,SE,135,11.4,13.8,29,0.00,CLR,,0.00,WeatherDisplay:10.37,2013-10-07 20:35:00,
2013-10-07 14:40:00,74.1,40.7,29.73,South,180,5.8,8.1,30,0.00,CLR,,0.00,WeatherDisplay:10.37,2013-10-07 20:40:00,
2013-10-07 14:45:00,74.3,40.8,29.73,South,180,12.9,15.0,30,0.00,CLR,,0.00,WeatherDisplay:10.37,2013-10-07 20:45:00,
2013-10-07 14:50:00,74.1,39.8,29.73,SSE,158,11.6,12.7,29,0.00,CLR,,0.00,WeatherDisplay:10.37,2013-10-07 20:50:00,
2013-10-07 14:55:00,74.1,40.7,29.72,SW,225,6.9,8.1,30,0.00,CLR,,0.00,WeatherDisplay:10.37,2013-10-07 20:55:00,
2013-10-07 15:00:00,73.9,40.5,29.72,SE,135,11.4,14.0,30,0.00,CLR,,0.00,WeatherDisplay:10.37,2013-10-07 21:00:00,
2013-10-07 15:05:00,73.8,41.3,29.71,SSE,158,7.3,8.8,31,0.00,CLR,,0.00,WeatherDisplay:10.37,2013-10-07 21:05:00,
2013-10-07 15:10:00,73.8,40.4,29.71,SSW,202,9.5,10.4,30,0.00,CLR,,0.00,WeatherDisplay:10.37,2013-10-07 21:10:00,
2013-10-07 15:15:00,73.8,40.4,29.71,South,180,9.5,10.9,30,0.00,CLR,,0.00,WeatherDisplay:10.37,2013-10-07 21:15:00,
2013-10-07 15:20:00,73.9,40.5,29.71,SSE,158,8.5,10.4,30,0.00,CLR,,0.00,WeatherDisplay:10.37,2013-10-07 21:20:00,
2013-10-07 15:25:00,73.8,42.9,29.71,SSE,158,9.7,12.7,33,0.00,CLR,,0.00,WeatherDisplay:10.37,2013-10-07 21:25:00,
2013-10-07 15:30:00,73.8,42.1,29.71,SE,135,8.3,10.4,32,0.00,CLR,,0.00,WeatherDisplay:10.37,2013-10-07 21:30:00,
2013-10-07 15:35:00,73.4,42.5,29.71,South,180,11.7,11.7,33,0.00,CLR,,0.00,WeatherDisplay:10.37,2013-10-07 21:35:00,
2013-10-07 15:40:00,72.7,42.7,29.71,South,180,10.0,15.0,34,0.00,CLR,,0.00,WeatherDisplay:10.37,2013-10-07 21:40:00,
2013-10-07 15:46:00,72.0,42.1,29.71,South,180,6.0,9.2,34,0.00,CLR,,0.00,WeatherDisplay:10.37,2013-10-07 21:46:00,
2013-10-07 15:51:00,71.1,42.8,29.71,South,180,10.3,12.7,36,0.00,CLR,,0.00,WeatherDisplay:10.37,2013-10-07 21:51:00,
2013-10-07 15:56:00,70.5,44.3,29.70,SSE,158,7.6,9.2,39,0.00,CLR,,0.00,WeatherDisplay:10.37,2013-10-07 21:56:00,
2013-10-07 16:01:00,70.0,44.6,29.70,SSE,158,9.6,10.4,40,0.00,CLR,,0.00,WeatherDisplay:10.37,2013-10-07 22:01:00,
2013-10-07 16:06:00,69.8,44.4,29.70,South,180,7.0,8.1,40,0.00,CLR,,0.00,WeatherDisplay:10.37,2013-10-07 22:06:00,
2013-10-07 16:11:00,69.8,44.4,29.70,SE,135,9.5,12.7,40,0.00,CLR,,0.00,WeatherDisplay:10.37,2013-10-07 22:11:00,
2013-10-07 16:16:00,70.0,44.6,29.70,SE,135,6.9,9.2,40,0.00,CLR,,0.00,WeatherDisplay:10.37,2013-10-07 22:16:00,
2013-10-07 16:21:00,70.2,44.7,29.70,SSE,158,7.9,10.4,40,0.00,CLR,,0.00,WeatherDisplay:10.37,2013-10-07 22:21:00,
2013-10-07 16:26:00,70.3,44.2,29.70,SSE,158,8.6,11.5,39,0.00,CLR,,0.00,WeatherDisplay:10.37,2013-10-07 22:26:00,
2013-10-07 16:31:00,69.8,44.4,29.70,SE,135,8.9,10.4,40,0.00,CLR,,0.00,WeatherDisplay:10.37,2013-10-07 22:31:00,
2013-10-07 16:36:00,69.4,44.0,29.70,South,180,7.1,11.5,40,0.00,CLR,,0.00,WeatherDisplay:10.37,2013-10-07 22:36:00,
2013-10-07 16:41:00,69.1,44.4,29.69,SSE,158,6.4,7.8,41,0.00,CLR,,0.00,WeatherDisplay:10.37,2013-10-07 22:41:00,
2013-10-07 16:46:00,69.1,44.4,29.69,SSE,158,8.8,10.4,41,0.00,CLR,,0.00,WeatherDisplay:10.37,2013-10-07 22:46:00,
2013-10-07 16:51:00,68.9,44.2,29.69,ESE,112,5.5,6.9,41,0.00,CLR,,0.00,WeatherDisplay:10.37,2013-10-07 22:51:00,
2013-10-07 16:56:00,68.5,44.5,29.69,SE,135,9.3,10.4,42,0.00,CLR,,0.00,WeatherDisplay:10.37,2013-10-07 22:56:00,
2013-10-07 17:01:00,68.2,44.8,29.69,SSE,158,6.7,8.1,43,0.00,CLR,,0.00,WeatherDisplay:10.37,2013-10-07 23:01:00,
2013-10-07 17:06:00,67.3,44.0,29.69,SSE,158,6.4,10.4,43,0.00,CLR,,0.00,WeatherDisplay:10.37,2013-10-07 23:06:00,
2013-10-07 17:11:00,66.7,44.7,29.69,ESE,112,5.3,6.9,45,0.00,CLR,,0.00,WeatherDisplay:10.37,2013-10-07 23:11:00,
2013-10-07 17:16:00,65.8,45.0,29.68,SSE,158,3.9,4.6,47,0.00,CLR,,0.00,WeatherDisplay:10.37,2013-10-07 23:16:00,
2013-10-07 17:21:00,64.9,44.2,29.68,SE,135,5.0,5.8,47,0.00,CLR,,0.00,WeatherDisplay:10.37,2013-10-07 23:21:00,
2013-10-07 17:26:00,64.4,43.7,29.68,SSE,158,7.2,10.4,47,0.00,CLR,,0.00,WeatherDisplay:10.37,2013-10-07 23:26:00,
2013-10-07 17:31:00,63.9,43.3,29.68,ESE,112,6.3,8.1,47,0.00,CLR,,0.00,WeatherDisplay:10.37,2013-10-07 23:31:00,
2013-10-07 17:36:00,63.3,43.3,29.68,SE,135,6.7,8.1,48,0.00,CLR,,0.00,WeatherDisplay:10.37,2013-10-07 23:36:00,
2013-10-07 17:41:00,62.8,43.3,29.68,SSE,158,4.0,11.5,49,0.00,CLR,,0.00,WeatherDisplay:10.37,2013-10-07 23:41:00,
2013-10-07 17:46:00,62.1,42.7,29.68,SE,135,6.7,8.1,49,0.00,CLR,,0.00,WeatherDisplay:10.37,2013-10-07 23:46:00,
2013-10-07 17:51:00,61.7,42.9,29.68,SE,135,5.3,6.9,50,0.00,CLR,,0.00,WeatherDisplay:10.37,2013-10-07 23:51:00,
2013-10-07 17:56:00,61.2,42.4,29.68,SE,135,6.4,7.3,50,0.00,CLR,,0.00,WeatherDisplay:10.37,2013-10-07 23:56:00,
2013-10-07 18:01:00,60.8,42.0,29.68,SSE,158,7.0,8.1,50,0.00,CLR,,0.00,WeatherDisplay:10.37,2013-10-08 00:01:00,
2013-10-07 18:06:00,60.4,41.7,29.68,SSE,158,6.3,8.1,50,0.00,CLR,,0.00,WeatherDisplay:10.37,2013-10-08 00:06:00,
2013-10-07 18:11:00,59.9,41.7,29.68,SE,135,4.5,4.7,51,0.00,CLR,,0.00,WeatherDisplay:10.37,2013-10-08 00:11:00,
2013-10-07 18:16:00,59.2,41.6,29.68,SSE,158,5.8,10.4,52,0.00,CLR,,0.00,WeatherDisplay:10.37,2013-10-08 00:16:00,
2013-10-07 18:21:00,58.5,41.4,29.68,SE,135,7.6,9.2,53,0.00,CLR,,0.00,WeatherDisplay:10.37,2013-10-08 00:21:00,
2013-10-07 18:26:00,57.7,41.2,29.68,SSE,158,8.4,9.2,54,0.00,CLR,,0.00,WeatherDisplay:10.37,2013-10-08 00:26:00,
2013-10-07 18:31:00,57.4,41.4,29.68,SSE,158,7.0,10.4,55,0.00,CLR,,0.00,WeatherDisplay:10.37,2013-10-08 00:31:00,
2013-10-07 18:36:00,56.7,41.2,29.68,South,180,6.9,9.2,56,0.00,CLR,,0.00,WeatherDisplay:10.37,2013-10-08 00:36:00,
2013-10-07 18:41:00,56.3,40.8,29.67,South,180,7.4,10.4,56,0.00,CLR,,0.00,WeatherDisplay:10.37,2013-10-08 00:41:00,
2013-10-07 18:46:00,55.6,40.6,29.67,SSE,158,8.5,10.9,57,0.00,CLR,,0.00,WeatherDisplay:10.37,2013-10-08 00:46:00,
2013-10-07 18:51:00,55.2,40.7,29.67,SSE,158,6.7,10.4,58,0.00,CLR,,0.00,WeatherDisplay:10.37,2013-10-08 00:51:00,
2013-10-07 18:56:00,54.7,40.6,29.67,SSE,158,6.8,6.9,59,0.00,CLR,,0.00,WeatherDisplay:10.37,2013-10-08 00:56:00,
2013-10-07 19:01:00,54.3,40.7,29.67,ESE,112,5.9,8.1,60,0.00,CLR,,0.00,WeatherDisplay:10.37,2013-10-08 01:01:00,
2013-10-07 19:06:00,53.8,40.7,29.67,SSE,158,6.0,8.1,61,0.00,CLR,,0.00,WeatherDisplay:10.37,2013-10-08 01:06:00,
2013-10-07 19:11:00,53.2,40.5,29.67,ESE,112,6.6,6.9,62,0.00,CLR,,0.00,WeatherDisplay:10.37,2013-10-08 01:11:00,
2013-10-07 19:16:00,52.7,40.5,29.67,SSE,158,4.3,8.1,63,0.00,CLR,,0.00,WeatherDisplay:10.37,2013-10-08 01:16:00,
2013-10-07 19:21:00,52.5,40.3,29.67,ESE,112,4.9,5.8,63,0.00,CLR,,0.00,WeatherDisplay:10.37,2013-10-08 01:21:00,
2013-10-07 19:26:00,52.0,40.2,29.67,SSW,202,4.7,5.8,64,0.00,CLR,,0.00,WeatherDisplay:10.37,2013-10-08 01:26:00,
2013-10-07 19:31:00,51.6,40.2,29.67,SE,135,4.0,5.8,65,0.00,CLR,,0.00,WeatherDisplay:10.37,2013-10-08 01:31:00,
2013-10-07 19:36:00,51.1,40.1,29.67,SE,135,3.1,4.7,66,0.00,CLR,,0.00,WeatherDisplay:10.37,2013-10-08 01:36:00,
2013-10-07 19:41:00,51.1,40.1,29.67,SE,135,6.2,8.1,66,0.00,CLR,,0.00,WeatherDisplay:10.37,2013-10-08 01:41:00,
2013-10-07 19:46:00,50.7,39.7,29.67,ESE,112,8.4,10.4,66,0.00,CLR,,0.00,WeatherDisplay:10.37,2013-10-08 01:46:00,
2013-10-07 19:51:00,50.5,39.9,29.66,SSE,158,4.5,9.2,67,0.00,CLR,,0.00,WeatherDisplay:10.37,2013-10-08 01:51:00,
2013-10-07 19:56:00,50.2,39.7,29.66,ESE,112,1.7,4.6,67,0.00,CLR,,0.00,WeatherDisplay:10.37,2013-10-08 01:56:00,
2013-10-07 20:01:00,50.0,39.5,29.66,ESE,112,3.4,4.6,67,0.00,CLR,,0.00,WeatherDisplay:10.37,2013-10-08 02:01:00,
2013-10-07 20:06:00,49.6,39.5,29.67,ESE,112,4.6,5.8,68,0.00,CLR,,0.00,WeatherDisplay:10.37,2013-10-08 02:06:00,
2013-10-07 20:11:00,49.3,39.6,29.67,SE,135,3.0,4.6,69,0.00,CLR,,0.00,WeatherDisplay:10.37,2013-10-08 02:11:00,
2013-10-07 20:16:00,49.1,39.4,29.66,SSW,202,3.1,5.8,69,0.00,CLR,,0.00,WeatherDisplay:10.37,2013-10-08 02:16:00,
2013-10-07 20:21:00,48.9,39.2,29.66,SSE,158,3.6,5.8,69,0.00,CLR,,0.00,WeatherDisplay:10.37,2013-10-08 02:21:00,
2013-10-07 20:26:00,48.6,39.3,29.66,South,180,5.0,6.9,70,0.00,CLR,,0.00,WeatherDisplay:10.37,2013-10-08 02:26:00,
2013-10-07 20:31:00,48.2,38.9,29.66,South,180,5.6,5.8,70,0.00,CLR,,0.00,WeatherDisplay:10.37,2013-10-08 02:31:00,
2013-10-07 20:36:00,47.8,38.8,29.66,South,180,4.0,5.8,71,0.00,CLR,,0.00,WeatherDisplay:10.37,2013-10-08 02:36:00,
2013-10-07 20:41:00,47.7,39.1,29.66,SW,225,3.8,4.6,72,0.00,CLR,,0.00,WeatherDisplay:10.37,2013-10-08 02:41:00,
2013-10-07 20:46:00,47.7,39.1,29.66,SSE,158,2.0,2.3,72,0.00,CLR,,0.00,WeatherDisplay:10.37,2013-10-08 02:46:00,
2013-10-07 20:51:00,47.5,38.9,29.65,ESE,112,4.6,5.8,72,0.00,CLR,,0.00,WeatherDisplay:10.37,2013-10-08 02:51:00,
2013-10-07 20:56:00,47.5,38.9,29.65,SSE,158,2.6,4.6,72,0.00,CLR,,0.00,WeatherDisplay:10.37,2013-10-08 02:56:00,
2013-10-07 21:01:00,47.5,38.9,29.65,South,180,3.7,4.6,72,0.00,CLR,,0.00,WeatherDisplay:10.37,2013-10-08 03:01:00,
2013-10-07 21:06:00,47.1,38.9,29.65,SE,135,4.1,4.6,73,0.00,CLR,,0.00,WeatherDisplay:10.37,2013-10-08 03:06:00,
2013-10-07 21:11:00,47.1,38.9,29.65,ESE,112,2.1,2.3,73,0.00,CLR,,0.00,WeatherDisplay:10.37,2013-10-08 03:11:00,
2013-10-07 21:16:00,46.9,39.0,29.64,NE,45,2.4,2.7,74,0.00,CLR,,0.00,WeatherDisplay:10.37,2013-10-08 03:16:00,
2013-10-07 21:21:00,46.2,38.7,29.64,NE,45,0.0,1.1,75,0.00,CLR,,0.00,WeatherDisplay:10.37,2013-10-08 03:21:00,
2013-10-07 21:26:00,45.9,38.8,29.64,East,90,1.7,2.3,76,0.00,CLR,,0.00,WeatherDisplay:10.37,2013-10-08 03:26:00,
2013-10-07 21:32:00,45.5,38.7,29.64,SE,135,3.5,3.7,77,0.00,CLR,,0.00,WeatherDisplay:10.37,2013-10-08 03:32:00,
2013-10-07 21:37:00,45.7,38.9,29.64,South,180,4.4,4.4,77,0.00,CLR,,0.00,WeatherDisplay:10.37,2013-10-08 03:37:00,
2013-10-07 21:42:00,45.5,38.7,29.63,SE,135,1.3,3.5,77,0.00,CLR,,0.00,WeatherDisplay:10.37,2013-10-08 03:42:00,
2013-10-07 21:47:00,45.3,38.5,29.63,ENE,68,0.0,0.0,77,0.00,CLR,,0.00,WeatherDisplay:10.37,2013-10-08 03:47:00,
2013-10-07 21:52:00,45.1,38.6,29.64,East,90,0.6,2.3,78,0.00,CLR,,0.00,WeatherDisplay:10.37,2013-10-08 03:52:00,
2013-10-07 21:57:00,44.8,38.4,29.64,NE,45,0.0,0.0,78,0.00,CLR,,0.00,WeatherDisplay:10.37,2013-10-08 03:57:00,
2013-10-07 22:01:00,44.8,38.4,29.64,SE,135,3.6,3.6,78,0.00,CLR,,0.00,WeatherDisplay:10.37,2013-10-08 04:01:00,
2013-10-07 22:06:00,44.8,38.4,29.63,SSE,158,4.1,4.7,78,0.00,CLR,,0.00,WeatherDisplay:10.37,2013-10-08 04:06:00,
2013-10-07 22:11:00,45.0,38.6,29.63,South,180,1.6,2.3,78,0.00,CLR,,0.00,WeatherDisplay:10.37,2013-10-08 04:11:00,
2013-10-07 22:16:00,44.4,38.3,29.63,ENE,68,0.0,0.0,79,0.00,CLR,,0.00,WeatherDisplay:10.37,2013-10-08 04:16:00,
2013-10-07 22:21:00,44.1,38.3,29.63,NE,45,0.1,1.1,80,0.00,CLR,,0.00,WeatherDisplay:10.37,2013-10-08 04:21:00,
2013-10-07 22:26:00,43.7,37.9,29.63,NNE,22,2.2,2.3,80,0.00,CLR,,0.00,WeatherDisplay:10.37,2013-10-08 04:26:00,
2013-10-07 22:31:00,43.5,38.1,29.62,South,180,0.0,0.0,81,0.00,CLR,,0.00,WeatherDisplay:10.37,2013-10-08 04:31:00,
2013-10-07 22:36:00,43.2,37.8,29.62,NW,315,2.1,2.3,81,0.00,CLR,,0.00,WeatherDisplay:10.37,2013-10-08 04:36:00,
2013-10-07 22:41:00,43.2,38.1,29.63,WNW,292,0.0,0.0,82,0.00,CLR,,0.00,WeatherDisplay:10.37,2013-10-08 04:41:00,
2013-10-07 22:46:00,43.0,37.9,29.63,WSW,248,0.0,0.0,82,0.00,CLR,,0.00,WeatherDisplay:10.37,2013-10-08 04:46:00,
2013-10-07 22:51:00,42.8,37.7,29.63,West,270,0.3,1.1,82,0.00,CLR,,0.00,WeatherDisplay:10.37,2013-10-08 04:51:00,
2013-10-07 22:56:00,42.8,38.0,29.63,West,270,0.0,1.1,83,0.00,CLR,,0.00,WeatherDisplay:10.37,2013-10-08 04:56:00,
2013-10-07 23:01:00,42.8,38.0,29.63,SE,135,1.5,2.3,83,0.00,CLR,,0.00,WeatherDisplay:10.37,2013-10-08 05:01:00,
2013-10-07 23:06:00,42.6,38.1,29.63,SE,135,2.0,2.3,84,0.00,CLR,,0.00,WeatherDisplay:10.37,2013-10-08 05:06:00,
2013-10-07 23:11:00,42.8,38.0,29.63,SE,135,2.6,2.7,83,0.00,CLR,,0.00,WeatherDisplay:10.37,2013-10-08 05:11:00,
2013-10-07 23:16:00,43.2,38.1,29.62,South,180,2.2,2.3,82,0.00,CLR,,0.00,WeatherDisplay:10.37,2013-10-08 05:16:00,
2013-10-07 23:21:00,43.2,38.1,29.62,SSE,158,1.9,2.3,82,0.00,CLR,,0.00,WeatherDisplay:10.37,2013-10-08 05:21:00,
2013-10-07 23:26:00,43.0,37.9,29.62,SE,135,1.7,2.3,82,0.00,CLR,,0.00,WeatherDisplay:10.37,2013-10-08 05:26:00,
2013-10-07 23:31:00,42.8,37.7,29.61,SSE,158,1.6,2.3,82,0.00,CLR,,0.00,WeatherDisplay:10.37,2013-10-08 05:31:00,
2013-10-07 23:36:00,42.6,37.8,29.61,SSE,158,0.9,1.7,83,0.00,CLR,,0.00,WeatherDisplay:10.37,2013-10-08 05:36:00,
2013-10-07 23:41:00,42.6,37.8,29.61,South,180,3.7,4.6,83,0.00,CLR,,0.00,WeatherDisplay:10.37,2013-10-08 05:41:00,
2013-10-07 23:46:00,42.6,37.5,29.61,SSE,158,2.8,3.5,82,0.00,CLR,,0.00,WeatherDisplay:10.37,2013-10-08 05:46:00,
2013-10-07 23:51:00,42.4,37.3,29.61,SE,135,4.0,4.6,82,0.00,CLR,,0.00,WeatherDisplay:10.37,2013-10-08 05:51:00,
2013-10-07 23:56:00,42.3,37.2,29.61,ESE,112,0.0,1.1,82,0.00,CLR,,0.00,WeatherDisplay:10.37,2013-10-08 05:56:00,